sensor_id;sensor_type;location;lat;lon;timestamp;P1;durP1;ratioP1;P2;durP2;ratioP2
69636;SDS011;56860;51.144;16.954;2024-01-30T00:00:11;11.1;;;22.3;;
69636;SDS011;56860;51.144;16.954;2024-01-30T00:01:10;11.1;;;22.3;;
69636;SDS011;56860;51.144;16.954;2024-01-30T00:02:11;10.6;;;18.0;;
69636;SDS011;56860;51.144;16.954;2024-01-30T00:03:10;10.6;;;18.0;;
69636;SDS011;56860;51.144;16.954;2024-01-30T00:04:10;10.6;;;18.0;;
69636;SDS011;56860;51.144;16.954;2024-01-30T00:05:11;11.2;;;19.8;;
69636;SDS011;56860;51.144;16.954;2024-01-30T00:06:11;11.2;;;19.8;;
69636;SDS011;56860;51.144;16.954;2024-01-30T00:07:11;11.2;;;19.8;;
69636;SDS011;56860;51.144;16.954;2024-01-30T00:08:11;11.3;;;19.8;;
69636;SDS011;56860;51.144;16.954;2024-01-30T00:09:11;11.3;;;19.8;;
69636;SDS011;56860;51.144;16.954;2024-01-30T00:10:11;11.3;;;19.8;;
69636;SDS011;56860;51.144;16.954;2024-01-30T00:11:11;11.9;;;21.5;;
69636;SDS011;56860;51.144;16.954;2024-01-30T00:12:11;11.9;;;21.5;;
69636;SDS011;56860;51.144;16.954;2024-01-30T00:13:11;11.9;;;21.5;;
69636;SDS011;56860;51.144;16.954;2024-01-30T00:14:11;12.0;;;21.5;;
69636;SDS011;56860;51.144;16.954;2024-01-30T00:15:11;12.0;;;21.5;;
69636;SDS011;56860;51.144;16.954;2024-01-30T00:16:19;12.0;;;21.5;;
69636;SDS011;56860;51.144;16.954;2024-01-30T00:17:11;11.7;;;17.5;;
69636;SDS011;56860;51.144;16.954;2024-01-30T00:18:11;11.7;;;17.5;;
69636;SDS011;56860;51.144;16.954;2024-01-30T00:19:11;11.7;;;17.5;;
69636;SDS011;56860;51.144;16.954;2024-01-30T00:20:11;12.6;;;19.9;;
69636;SDS011;56860;51.144;16.954;2024-01-30T00:21:11;12.6;;;19.9;;
69636;SDS011;56860;51.144;16.954;2024-01-30T00:22:11;12.6;;;19.9;;
69636;SDS011;56860;51.144;16.954;2024-01-30T00:23:11;13.1;;;22.9;;
69636;SDS011;56860;51.144;16.954;2024-01-30T00:24:11;13.1;;;22.9;;
69636;SDS011;56860;51.144;16.954;2024-01-30T00:25:11;13.1;;;22.9;;
69636;SDS011;56860;51.144;16.954;2024-01-30T00:26:11;13.7;;;24.9;;
69636;SDS011;56860;51.144;16.954;2024-01-30T00:27:11;13.1;;;23.2;;
69636;SDS011;56860;51.144;16.954;2024-01-30T00:28:11;13.1;;;23.2;;
69636;SDS011;56860;51.144;16.954;2024-01-30T00:29:11;11.4;;;22.5;;
69636;SDS011;56860;51.144;16.954;2024-01-30T00:30:11;13.0;;;22.8;;
69636;SDS011;56860;51.144;16.954;2024-01-30T00:31:11;13.0;;;22.8;;
69636;SDS011;56860;51.144;16.954;2024-01-30T00:32:11;13.0;;;22.8;;
69636;SDS011;56860;51.144;16.954;2024-01-30T00:33:11;11.9;;;18.2;;
69636;SDS011;56860;51.144;16.954;2024-01-30T00:34:11;11.9;;;18.2;;
69636;SDS011;56860;51.144;16.954;2024-01-30T00:35:11;11.9;;;18.2;;
69636;SDS011;56860;51.144;16.954;2024-01-30T00:36:11;12.7;;;21.2;;
69636;SDS011;56860;51.144;16.954;2024-01-30T00:37:11;12.7;;;21.2;;
69636;SDS011;56860;51.144;16.954;2024-01-30T00:38:11;12.7;;;21.2;;
69636;SDS011;56860;51.144;16.954;2024-01-30T00:39:11;12.0;;;20.6;;
69636;SDS011;56860;51.144;16.954;2024-01-30T00:40:11;12.0;;;20.6;;
69636;SDS011;56860;51.144;16.954;2024-01-30T00:41:11;12.0;;;20.6;;
69636;SDS011;56860;51.144;16.954;2024-01-30T00:42:11;13.4;;;19.5;;
69636;SDS011;56860;51.144;16.954;2024-01-30T00:43:11;13.4;;;19.5;;
69636;SDS011;56860;51.144;16.954;2024-01-30T00:44:11;13.4;;;19.5;;
69636;SDS011;56860;51.144;16.954;2024-01-30T00:45:12;12.6;;;24.8;;
69636;SDS011;56860;51.144;16.954;2024-01-30T00:46:11;12.6;;;24.8;;
69636;SDS011;56860;51.144;16.954;2024-01-30T00:47:11;12.6;;;24.8;;
69636;SDS011;56860;51.144;16.954;2024-01-30T00:48:11;13.4;;;24.5;;
69636;SDS011;56860;51.144;16.954;2024-01-30T00:49:11;13.4;;;24.5;;
69636;SDS011;56860;51.144;16.954;2024-01-30T00:50:11;13.4;;;24.5;;
69636;SDS011;56860;51.144;16.954;2024-01-30T00:51:11;13.0;;;26.5;;
69636;SDS011;56860;51.144;16.954;2024-01-30T00:52:11;13.0;;;26.5;;
69636;SDS011;56860;51.144;16.954;2024-01-30T00:53:11;13.0;;;26.5;;
69636;SDS011;56860;51.144;16.954;2024-01-30T00:54:11;13.5;;;26.9;;
69636;SDS011;56860;51.144;16.954;2024-01-30T00:55:11;13.5;;;26.9;;
69636;SDS011;56860;51.144;16.954;2024-01-30T00:56:11;13.5;;;26.9;;
69636;SDS011;56860;51.144;16.954;2024-01-30T00:57:11;13.3;;;20.9;;
69636;SDS011;56860;51.144;16.954;2024-01-30T00:58:11;13.3;;;20.9;;
69636;SDS011;56860;51.144;16.954;2024-01-30T00:59:11;13.3;;;20.9;;
69636;SDS011;56860;51.144;16.954;2024-01-30T01:00:11;13.3;;;21.7;;
69636;SDS011;56860;51.144;16.954;2024-01-30T01:01:11;13.3;;;21.7;;
69636;SDS011;56860;51.144;16.954;2024-01-30T01:02:11;13.3;;;21.7;;
69636;SDS011;56860;51.144;16.954;2024-01-30T01:03:11;13.3;;;21.5;;
69636;SDS011;56860;51.144;16.954;2024-01-30T01:04:11;13.3;;;20.7;;
69636;SDS011;56860;51.144;16.954;2024-01-30T01:05:11;13.3;;;20.7;;
69636;SDS011;56860;51.144;16.954;2024-01-30T01:06:11;13.3;;;20.7;;
69636;SDS011;56860;51.144;16.954;2024-01-30T01:07:11;12.3;;;21.4;;
69636;SDS011;56860;51.144;16.954;2024-01-30T01:08:11;12.3;;;21.4;;
69636;SDS011;56860;51.144;16.954;2024-01-30T01:09:11;12.3;;;21.4;;
69636;SDS011;56860;51.144;16.954;2024-01-30T01:10:11;12.3;;;21.4;;
69636;SDS011;56860;51.144;16.954;2024-01-30T01:11:11;12.3;;;21.4;;
69636;SDS011;56860;51.144;16.954;2024-01-30T01:12:12;12.3;;;21.4;;
69636;SDS011;56860;51.144;16.954;2024-01-30T01:13:11;12.8;;;22.9;;
69636;SDS011;56860;51.144;16.954;2024-01-30T01:14:11;12.8;;;22.9;;
69636;SDS011;56860;51.144;16.954;2024-01-30T01:15:11;12.8;;;22.9;;
69636;SDS011;56860;51.144;16.954;2024-01-30T01:16:11;13.2;;;22.4;;
69636;SDS011;56860;51.144;16.954;2024-01-30T01:17:11;13.2;;;22.4;;
69636;SDS011;56860;51.144;16.954;2024-01-30T01:18:11;13.2;;;22.4;;
69636;SDS011;56860;51.144;16.954;2024-01-30T01:19:11;12.8;;;20.7;;
69636;SDS011;56860;51.144;16.954;2024-01-30T01:20:11;12.8;;;20.7;;
69636;SDS011;56860;51.144;16.954;2024-01-30T01:21:11;12.8;;;20.7;;
69636;SDS011;56860;51.144;16.954;2024-01-30T01:22:11;13.3;;;23.2;;
69636;SDS011;56860;51.144;16.954;2024-01-30T01:23:12;13.3;;;23.2;;
69636;SDS011;56860;51.144;16.954;2024-01-30T01:24:11;13.3;;;23.2;;
69636;SDS011;56860;51.144;16.954;2024-01-30T01:25:11;13.3;;;24.4;;
69636;SDS011;56860;51.144;16.954;2024-01-30T01:26:11;13.3;;;24.4;;
69636;SDS011;56860;51.144;16.954;2024-01-30T01:27:11;13.3;;;24.4;;
69636;SDS011;56860;51.144;16.954;2024-01-30T01:28:11;13.4;;;23.3;;
69636;SDS011;56860;51.144;16.954;2024-01-30T01:29:11;13.4;;;23.3;;
69636;SDS011;56860;51.144;16.954;2024-01-30T01:30:11;13.4;;;23.3;;
69636;SDS011;56860;51.144;16.954;2024-01-30T01:31:11;13.5;;;21.7;;
69636;SDS011;56860;51.144;16.954;2024-01-30T01:32:11;13.5;;;21.7;;
69636;SDS011;56860;51.144;16.954;2024-01-30T01:33:11;13.5;;;21.7;;
69636;SDS011;56860;51.144;16.954;2024-01-30T01:34:11;14.2;;;26.4;;
69636;SDS011;56860;51.144;16.954;2024-01-30T01:35:11;14.1;;;25.0;;
69636;SDS011;56860;51.144;16.954;2024-01-30T01:36:11;14.1;;;25.0;;
69636;SDS011;56860;51.144;16.954;2024-01-30T01:37:11;14.5;;;24.2;;
69636;SDS011;56860;51.144;16.954;2024-01-30T01:38:11;14.2;;;24.2;;
69636;SDS011;56860;51.144;16.954;2024-01-30T01:39:11;14.2;;;24.2;;
69636;SDS011;56860;51.144;16.954;2024-01-30T01:40:11;14.2;;;24.2;;
69636;SDS011;56860;51.144;16.954;2024-01-30T01:41:11;13.9;;;25.8;;
69636;SDS011;56860;51.144;16.954;2024-01-30T01:42:11;13.9;;;25.8;;
69636;SDS011;56860;51.144;16.954;2024-01-30T01:43:11;13.9;;;25.8;;
69636;SDS011;56860;51.144;16.954;2024-01-30T01:44:11;13.4;;;21.1;;
69636;SDS011;56860;51.144;16.954;2024-01-30T01:45:11;13.4;;;21.1;;
69636;SDS011;56860;51.144;16.954;2024-01-30T01:46:11;13.4;;;21.1;;
69636;SDS011;56860;51.144;16.954;2024-01-30T01:47:11;13.8;;;23.3;;
69636;SDS011;56860;51.144;16.954;2024-01-30T01:48:11;13.8;;;23.3;;
69636;SDS011;56860;51.144;16.954;2024-01-30T01:49:11;13.8;;;23.3;;
69636;SDS011;56860;51.144;16.954;2024-01-30T01:50:11;14.4;;;23.6;;
69636;SDS011;56860;51.144;16.954;2024-01-30T01:51:11;14.4;;;23.6;;
69636;SDS011;56860;51.144;16.954;2024-01-30T01:52:11;14.4;;;23.6;;
69636;SDS011;56860;51.144;16.954;2024-01-30T01:53:11;13.9;;;23.1;;
69636;SDS011;56860;51.144;16.954;2024-01-30T01:54:11;13.9;;;23.1;;
69636;SDS011;56860;51.144;16.954;2024-01-30T01:55:11;13.9;;;23.1;;
69636;SDS011;56860;51.144;16.954;2024-01-30T01:56:11;19.7;;;28.9;;
69636;SDS011;56860;51.144;16.954;2024-01-30T01:57:11;19.7;;;28.9;;
69636;SDS011;56860;51.144;16.954;2024-01-30T01:58:11;19.7;;;28.9;;
69636;SDS011;56860;51.144;16.954;2024-01-30T01:59:11;18.8;;;24.8;;
69636;SDS011;56860;51.144;16.954;2024-01-30T02:00:11;18.8;;;24.8;;
69636;SDS011;56860;51.144;16.954;2024-01-30T02:01:11;18.8;;;24.8;;
69636;SDS011;56860;51.144;16.954;2024-01-30T02:02:11;14.8;;;24.5;;
69636;SDS011;56860;51.144;16.954;2024-01-30T02:03:11;14.8;;;24.5;;
69636;SDS011;56860;51.144;16.954;2024-01-30T02:04:11;14.8;;;24.5;;
69636;SDS011;56860;51.144;16.954;2024-01-30T02:05:11;14.6;;;24.6;;
69636;SDS011;56860;51.144;16.954;2024-01-30T02:06:11;14.6;;;24.6;;
69636;SDS011;56860;51.144;16.954;2024-01-30T02:07:11;14.6;;;24.6;;
69636;SDS011;56860;51.144;16.954;2024-01-30T02:08:11;13.9;;;22.2;;
69636;SDS011;56860;51.144;16.954;2024-01-30T02:09:11;13.9;;;22.2;;
69636;SDS011;56860;51.144;16.954;2024-01-30T02:10:11;13.9;;;22.2;;
69636;SDS011;56860;51.144;16.954;2024-01-30T02:11:11;15.0;;;25.8;;
69636;SDS011;56860;51.144;16.954;2024-01-30T02:12:11;14.6;;;26.0;;
69636;SDS011;56860;51.144;16.954;2024-01-30T02:13:11;14.6;;;26.0;;
69636;SDS011;56860;51.144;16.954;2024-01-30T02:14:11;15.7;;;26.7;;
69636;SDS011;56860;51.144;16.954;2024-01-30T02:15:13;15.5;;;25.6;;
69636;SDS011;56860;51.144;16.954;2024-01-30T02:16:11;15.5;;;25.6;;
69636;SDS011;56860;51.144;16.954;2024-01-30T02:17:11;15.5;;;25.6;;
69636;SDS011;56860;51.144;16.954;2024-01-30T02:18:11;15.1;;;27.2;;
69636;SDS011;56860;51.144;16.954;2024-01-30T02:19:11;15.1;;;27.2;;
69636;SDS011;56860;51.144;16.954;2024-01-30T02:20:11;15.1;;;27.2;;
69636;SDS011;56860;51.144;16.954;2024-01-30T02:21:11;14.7;;;26.5;;
69636;SDS011;56860;51.144;16.954;2024-01-30T02:22:11;14.7;;;26.5;;
69636;SDS011;56860;51.144;16.954;2024-01-30T02:23:11;14.7;;;26.5;;
69636;SDS011;56860;51.144;16.954;2024-01-30T02:24:11;14.4;;;23.5;;
69636;SDS011;56860;51.144;16.954;2024-01-30T02:25:12;14.4;;;23.5;;
69636;SDS011;56860;51.144;16.954;2024-01-30T02:26:11;14.4;;;23.5;;
69636;SDS011;56860;51.144;16.954;2024-01-30T02:27:11;14.7;;;24.6;;
69636;SDS011;56860;51.144;16.954;2024-01-30T02:28:11;14.7;;;24.6;;
69636;SDS011;56860;51.144;16.954;2024-01-30T02:29:11;14.7;;;24.6;;
69636;SDS011;56860;51.144;16.954;2024-01-30T02:30:11;15.2;;;27.3;;
69636;SDS011;56860;51.144;16.954;2024-01-30T02:31:11;15.2;;;27.3;;
69636;SDS011;56860;51.144;16.954;2024-01-30T02:32:11;15.2;;;27.3;;
69636;SDS011;56860;51.144;16.954;2024-01-30T02:33:11;15.5;;;29.1;;
69636;SDS011;56860;51.144;16.954;2024-01-30T02:36:11;15.6;;;31.0;;
69636;SDS011;56860;51.144;16.954;2024-01-30T02:37:11;15.6;;;31.0;;
69636;SDS011;56860;51.144;16.954;2024-01-30T02:38:11;15.6;;;31.0;;
69636;SDS011;56860;51.144;16.954;2024-01-30T02:39:11;15.6;;;31.0;;
69636;SDS011;56860;51.144;16.954;2024-01-30T02:40:11;15.7;;;27.2;;
69636;SDS011;56860;51.144;16.954;2024-01-30T02:41:11;15.7;;;27.2;;
69636;SDS011;56860;51.144;16.954;2024-01-30T02:42:11;15.7;;;27.2;;
69636;SDS011;56860;51.144;16.954;2024-01-30T02:43:11;15.5;;;28.0;;
69636;SDS011;56860;51.144;16.954;2024-01-30T02:44:11;15.5;;;28.0;;
69636;SDS011;56860;51.144;16.954;2024-01-30T02:45:11;15.5;;;28.0;;
69636;SDS011;56860;51.144;16.954;2024-01-30T02:46:11;14.9;;;28.1;;
69636;SDS011;56860;51.144;16.954;2024-01-30T02:47:11;14.9;;;28.1;;
69636;SDS011;56860;51.144;16.954;2024-01-30T02:48:11;14.9;;;28.1;;
69636;SDS011;56860;51.144;16.954;2024-01-30T02:49:11;15.0;;;25.3;;
69636;SDS011;56860;51.144;16.954;2024-01-30T02:50:11;15.0;;;25.3;;
69636;SDS011;56860;51.144;16.954;2024-01-30T02:51:11;15.0;;;25.3;;
69636;SDS011;56860;51.144;16.954;2024-01-30T02:52:11;15.2;;;27.0;;
69636;SDS011;56860;51.144;16.954;2024-01-30T02:53:11;15.2;;;27.0;;
69636;SDS011;56860;51.144;16.954;2024-01-30T02:54:11;15.2;;;27.0;;
69636;SDS011;56860;51.144;16.954;2024-01-30T02:55:11;14.2;;;26.1;;
69636;SDS011;56860;51.144;16.954;2024-01-30T02:56:11;14.2;;;26.1;;
69636;SDS011;56860;51.144;16.954;2024-01-30T02:57:11;14.2;;;26.1;;
69636;SDS011;56860;51.144;16.954;2024-01-30T02:58:11;14.9;;;25.7;;
69636;SDS011;56860;51.144;16.954;2024-01-30T02:59:11;14.9;;;25.7;;
69636;SDS011;56860;51.144;16.954;2024-01-30T03:00:11;14.9;;;25.7;;
69636;SDS011;56860;51.144;16.954;2024-01-30T03:01:11;15.4;;;27.0;;
69636;SDS011;56860;51.144;16.954;2024-01-30T03:02:11;15.4;;;27.0;;
69636;SDS011;56860;51.144;16.954;2024-01-30T03:03:11;15.4;;;27.0;;
69636;SDS011;56860;51.144;16.954;2024-01-30T03:04:11;13.7;;;24.4;;
69636;SDS011;56860;51.144;16.954;2024-01-30T03:05:11;13.6;;;23.6;;
69636;SDS011;56860;51.144;16.954;2024-01-30T03:06:11;13.6;;;23.6;;
69636;SDS011;56860;51.144;16.954;2024-01-30T03:07:11;13.6;;;23.6;;
69636;SDS011;56860;51.144;16.954;2024-01-30T03:08:11;15.1;;;27.1;;
69636;SDS011;56860;51.144;16.954;2024-01-30T03:09:11;15.1;;;27.1;;
69636;SDS011;56860;51.144;16.954;2024-01-30T03:10:11;15.1;;;27.1;;
69636;SDS011;56860;51.144;16.954;2024-01-30T03:11:11;15.0;;;28.8;;
69636;SDS011;56860;51.144;16.954;2024-01-30T03:12:11;15.0;;;28.8;;
69636;SDS011;56860;51.144;16.954;2024-01-30T03:13:11;15.0;;;28.8;;
69636;SDS011;56860;51.144;16.954;2024-01-30T03:14:11;15.2;;;25.0;;
69636;SDS011;56860;51.144;16.954;2024-01-30T03:15:11;15.2;;;25.0;;
69636;SDS011;56860;51.144;16.954;2024-01-30T03:16:11;15.2;;;25.0;;
69636;SDS011;56860;51.144;16.954;2024-01-30T03:17:11;16.5;;;28.7;;
69636;SDS011;56860;51.144;16.954;2024-01-30T03:18:11;16.5;;;28.7;;
69636;SDS011;56860;51.144;16.954;2024-01-30T03:19:11;16.5;;;28.7;;
69636;SDS011;56860;51.144;16.954;2024-01-30T03:20:11;15.3;;;27.8;;
69636;SDS011;56860;51.144;16.954;2024-01-30T03:21:11;15.3;;;27.8;;
69636;SDS011;56860;51.144;16.954;2024-01-30T03:22:11;15.3;;;27.8;;
69636;SDS011;56860;51.144;16.954;2024-01-30T03:23:11;14.6;;;24.9;;
69636;SDS011;56860;51.144;16.954;2024-01-30T03:24:11;14.6;;;24.9;;
69636;SDS011;56860;51.144;16.954;2024-01-30T03:25:11;14.6;;;24.9;;
69636;SDS011;56860;51.144;16.954;2024-01-30T03:26:11;15.3;;;26.5;;
69636;SDS011;56860;51.144;16.954;2024-01-30T03:27:11;15.3;;;26.5;;
69636;SDS011;56860;51.144;16.954;2024-01-30T03:28:11;15.3;;;26.5;;
69636;SDS011;56860;51.144;16.954;2024-01-30T03:29:11;14.5;;;26.7;;
69636;SDS011;56860;51.144;16.954;2024-01-30T03:30:11;14.5;;;26.7;;
69636;SDS011;56860;51.144;16.954;2024-01-30T03:31:13;14.5;;;26.7;;
69636;SDS011;56860;51.144;16.954;2024-01-30T03:32:11;14.3;;;23.0;;
69636;SDS011;56860;51.144;16.954;2024-01-30T03:33:11;14.3;;;23.0;;
69636;SDS011;56860;51.144;16.954;2024-01-30T03:34:11;14.3;;;23.0;;
69636;SDS011;56860;51.144;16.954;2024-01-30T03:35:11;15.1;;;17.9;;
69636;SDS011;56860;51.144;16.954;2024-01-30T03:36:11;15.4;;;25.0;;
69636;SDS011;56860;51.144;16.954;2024-01-30T03:37:11;15.4;;;25.0;;
69636;SDS011;56860;51.144;16.954;2024-01-30T03:38:11;15.4;;;25.0;;
69636;SDS011;56860;51.144;16.954;2024-01-30T03:39:11;14.7;;;26.1;;
69636;SDS011;56860;51.144;16.954;2024-01-30T03:40:11;14.7;;;26.1;;
69636;SDS011;56860;51.144;16.954;2024-01-30T03:41:11;14.7;;;26.1;;
69636;SDS011;56860;51.144;16.954;2024-01-30T03:42:11;15.4;;;24.7;;
69636;SDS011;56860;51.144;16.954;2024-01-30T03:43:11;15.4;;;24.7;;
69636;SDS011;56860;51.144;16.954;2024-01-30T03:44:11;15.4;;;24.7;;
69636;SDS011;56860;51.144;16.954;2024-01-30T03:45:11;14.6;;;25.4;;
69636;SDS011;56860;51.144;16.954;2024-01-30T03:46:11;14.6;;;25.4;;
69636;SDS011;56860;51.144;16.954;2024-01-30T03:47:11;14.6;;;25.4;;
69636;SDS011;56860;51.144;16.954;2024-01-30T03:48:11;15.5;;;28.0;;
69636;SDS011;56860;51.144;16.954;2024-01-30T03:49:11;15.5;;;28.0;;
69636;SDS011;56860;51.144;16.954;2024-01-30T03:50:11;15.5;;;28.0;;
69636;SDS011;56860;51.144;16.954;2024-01-30T03:51:11;15.9;;;26.6;;
69636;SDS011;56860;51.144;16.954;2024-01-30T03:52:11;15.9;;;26.6;;
69636;SDS011;56860;51.144;16.954;2024-01-30T03:53:11;15.9;;;26.6;;
69636;SDS011;56860;51.144;16.954;2024-01-30T03:54:11;15.5;;;25.9;;
69636;SDS011;56860;51.144;16.954;2024-01-30T03:55:11;15.5;;;25.9;;
69636;SDS011;56860;51.144;16.954;2024-01-30T03:56:11;15.5;;;25.9;;
69636;SDS011;56860;51.144;16.954;2024-01-30T03:57:11;14.7;;;28.7;;
69636;SDS011;56860;51.144;16.954;2024-01-30T03:58:11;14.7;;;28.7;;
69636;SDS011;56860;51.144;16.954;2024-01-30T03:59:11;14.7;;;28.7;;
69636;SDS011;56860;51.144;16.954;2024-01-30T04:00:11;16.1;;;28.4;;
69636;SDS011;56860;51.144;16.954;2024-01-30T04:01:13;15.9;;;28.1;;
69636;SDS011;56860;51.144;16.954;2024-01-30T04:02:11;15.9;;;28.1;;
69636;SDS011;56860;51.144;16.954;2024-01-30T04:03:11;12.0;;;19.2;;
69636;SDS011;56860;51.144;16.954;2024-01-30T04:04:11;14.3;;;26.3;;
69636;SDS011;56860;51.144;16.954;2024-01-30T04:05:11;14.3;;;26.3;;
69636;SDS011;56860;51.144;16.954;2024-01-30T04:06:11;14.3;;;26.3;;
69636;SDS011;56860;51.144;16.954;2024-01-30T04:07:11;14.4;;;24.9;;
69636;SDS011;56860;51.144;16.954;2024-01-30T04:08:11;14.4;;;24.9;;
69636;SDS011;56860;51.144;16.954;2024-01-30T04:09:11;14.4;;;24.9;;
69636;SDS011;56860;51.144;16.954;2024-01-30T04:10:11;14.0;;;24.1;;
69636;SDS011;56860;51.144;16.954;2024-01-30T04:11:11;14.0;;;24.1;;
69636;SDS011;56860;51.144;16.954;2024-01-30T04:12:11;14.0;;;24.1;;
69636;SDS011;56860;51.144;16.954;2024-01-30T04:13:11;14.6;;;26.3;;
69636;SDS011;56860;51.144;16.954;2024-01-30T04:14:11;14.6;;;26.3;;
69636;SDS011;56860;51.144;16.954;2024-01-30T04:15:11;14.6;;;26.3;;
69636;SDS011;56860;51.144;16.954;2024-01-30T04:16:18;15.2;;;27.6;;
69636;SDS011;56860;51.144;16.954;2024-01-30T04:17:11;15.2;;;27.6;;
69636;SDS011;56860;51.144;16.954;2024-01-30T04:18:11;15.2;;;27.6;;
69636;SDS011;56860;51.144;16.954;2024-01-30T04:19:11;15.8;;;29.3;;
69636;SDS011;56860;51.144;16.954;2024-01-30T04:20:13;15.8;;;29.3;;
69636;SDS011;56860;51.144;16.954;2024-01-30T04:21:11;15.8;;;29.3;;
69636;SDS011;56860;51.144;16.954;2024-01-30T04:22:11;15.4;;;27.2;;
69636;SDS011;56860;51.144;16.954;2024-01-30T04:23:11;15.4;;;27.2;;
69636;SDS011;56860;51.144;16.954;2024-01-30T04:24:11;15.4;;;27.2;;
69636;SDS011;56860;51.144;16.954;2024-01-30T04:25:11;15.7;;;24.9;;
69636;SDS011;56860;51.144;16.954;2024-01-30T04:26:11;15.7;;;24.9;;
69636;SDS011;56860;51.144;16.954;2024-01-30T04:27:11;15.7;;;24.9;;
69636;SDS011;56860;51.144;16.954;2024-01-30T04:28:12;16.3;;;28.7;;
69636;SDS011;56860;51.144;16.954;2024-01-30T04:29:11;16.3;;;28.7;;
69636;SDS011;56860;51.144;16.954;2024-01-30T04:30:11;16.3;;;28.7;;
69636;SDS011;56860;51.144;16.954;2024-01-30T04:31:11;15.5;;;28.4;;
69636;SDS011;56860;51.144;16.954;2024-01-30T04:32:11;15.5;;;28.4;;
69636;SDS011;56860;51.144;16.954;2024-01-30T04:33:11;15.5;;;28.4;;
69636;SDS011;56860;51.144;16.954;2024-01-30T04:34:11;15.7;;;29.4;;
69636;SDS011;56860;51.144;16.954;2024-01-30T04:35:11;15.7;;;29.4;;
69636;SDS011;56860;51.144;16.954;2024-01-30T04:36:11;15.7;;;29.4;;
69636;SDS011;56860;51.144;16.954;2024-01-30T04:37:11;16.8;;;28.4;;
69636;SDS011;56860;51.144;16.954;2024-01-30T04:38:11;16.8;;;28.4;;
69636;SDS011;56860;51.144;16.954;2024-01-30T04:39:11;16.8;;;28.4;;
69636;SDS011;56860;51.144;16.954;2024-01-30T04:40:11;16.0;;;27.2;;
69636;SDS011;56860;51.144;16.954;2024-01-30T04:41:11;15.9;;;26.7;;
69636;SDS011;56860;51.144;16.954;2024-01-30T04:42:11;15.9;;;26.7;;
69636;SDS011;56860;51.144;16.954;2024-01-30T04:43:11;16.6;;;39.6;;
69636;SDS011;56860;51.144;16.954;2024-01-30T04:44:11;17.3;;;31.3;;
69636;SDS011;56860;51.144;16.954;2024-01-30T04:45:11;17.3;;;31.3;;
69636;SDS011;56860;51.144;16.954;2024-01-30T04:46:11;17.3;;;31.3;;
69636;SDS011;56860;51.144;16.954;2024-01-30T04:47:11;15.1;;;29.7;;
69636;SDS011;56860;51.144;16.954;2024-01-30T04:48:11;15.1;;;29.7;;
69636;SDS011;56860;51.144;16.954;2024-01-30T04:49:11;15.1;;;29.7;;
69636;SDS011;56860;51.144;16.954;2024-01-30T04:50:11;16.1;;;29.1;;
69636;SDS011;56860;51.144;16.954;2024-01-30T04:51:11;16.1;;;29.1;;
69636;SDS011;56860;51.144;16.954;2024-01-30T04:52:11;16.1;;;29.1;;
69636;SDS011;56860;51.144;16.954;2024-01-30T04:53:11;14.9;;;26.7;;
69636;SDS011;56860;51.144;16.954;2024-01-30T04:54:11;14.9;;;26.7;;
69636;SDS011;56860;51.144;16.954;2024-01-30T04:55:11;14.9;;;26.7;;
69636;SDS011;56860;51.144;16.954;2024-01-30T04:56:11;15.5;;;26.2;;
69636;SDS011;56860;51.144;16.954;2024-01-30T04:57:11;15.5;;;26.2;;
69636;SDS011;56860;51.144;16.954;2024-01-30T04:58:11;15.5;;;26.2;;
69636;SDS011;56860;51.144;16.954;2024-01-30T04:59:11;16.3;;;28.3;;
69636;SDS011;56860;51.144;16.954;2024-01-30T05:00:11;16.3;;;28.3;;
69636;SDS011;56860;51.144;16.954;2024-01-30T05:01:14;16.3;;;28.3;;
69636;SDS011;56860;51.144;16.954;2024-01-30T05:02:11;15.7;;;25.8;;
69636;SDS011;56860;51.144;16.954;2024-01-30T05:03:11;15.7;;;25.8;;
69636;SDS011;56860;51.144;16.954;2024-01-30T05:04:11;15.7;;;25.8;;
69636;SDS011;56860;51.144;16.954;2024-01-30T05:05:11;15.5;;;27.3;;
69636;SDS011;56860;51.144;16.954;2024-01-30T05:06:11;15.5;;;27.3;;
69636;SDS011;56860;51.144;16.954;2024-01-30T05:07:11;15.5;;;27.3;;
69636;SDS011;56860;51.144;16.954;2024-01-30T05:08:11;15.1;;;25.0;;
69636;SDS011;56860;51.144;16.954;2024-01-30T05:09:11;15.1;;;25.0;;
69636;SDS011;56860;51.144;16.954;2024-01-30T05:10:11;15.1;;;25.0;;
69636;SDS011;56860;51.144;16.954;2024-01-30T05:11:11;15.4;;;26.9;;
69636;SDS011;56860;51.144;16.954;2024-01-30T05:12:11;15.4;;;26.9;;
69636;SDS011;56860;51.144;16.954;2024-01-30T05:13:11;15.4;;;26.9;;
69636;SDS011;56860;51.144;16.954;2024-01-30T05:14:11;17.0;;;28.5;;
69636;SDS011;56860;51.144;16.954;2024-01-30T05:15:11;16.2;;;29.5;;
69636;SDS011;56860;51.144;16.954;2024-01-30T05:16:11;16.2;;;29.5;;
69636;SDS011;56860;51.144;16.954;2024-01-30T05:17:11;15.1;;;21.8;;
69636;SDS011;56860;51.144;16.954;2024-01-30T05:18:11;15.6;;;30.6;;
69636;SDS011;56860;51.144;16.954;2024-01-30T05:19:11;15.6;;;30.6;;
69636;SDS011;56860;51.144;16.954;2024-01-30T05:20:11;15.6;;;30.6;;
69636;SDS011;56860;51.144;16.954;2024-01-30T05:21:11;15.9;;;26.3;;
69636;SDS011;56860;51.144;16.954;2024-01-30T05:22:11;15.9;;;26.3;;
69636;SDS011;56860;51.144;16.954;2024-01-30T05:23:11;15.9;;;26.3;;
69636;SDS011;56860;51.144;16.954;2024-01-30T05:24:11;15.5;;;25.0;;
69636;SDS011;56860;51.144;16.954;2024-01-30T05:25:11;15.5;;;25.0;;
69636;SDS011;56860;51.144;16.954;2024-01-30T05:26:11;15.5;;;25.0;;
69636;SDS011;56860;51.144;16.954;2024-01-30T05:27:11;15.5;;;30.4;;
69636;SDS011;56860;51.144;16.954;2024-01-30T05:28:11;15.5;;;30.4;;
69636;SDS011;56860;51.144;16.954;2024-01-30T05:29:11;15.5;;;30.4;;
69636;SDS011;56860;51.144;16.954;2024-01-30T05:30:11;16.1;;;27.9;;
69636;SDS011;56860;51.144;16.954;2024-01-30T05:31:11;16.1;;;27.9;;
69636;SDS011;56860;51.144;16.954;2024-01-30T05:32:11;16.1;;;27.9;;
69636;SDS011;56860;51.144;16.954;2024-01-30T05:33:11;16.5;;;30.1;;
69636;SDS011;56860;51.144;16.954;2024-01-30T05:34:11;16.5;;;30.1;;
69636;SDS011;56860;51.144;16.954;2024-01-30T05:35:11;16.5;;;30.1;;
69636;SDS011;56860;51.144;16.954;2024-01-30T05:36:11;14.9;;;23.2;;
69636;SDS011;56860;51.144;16.954;2024-01-30T05:37:11;14.9;;;23.2;;
69636;SDS011;56860;51.144;16.954;2024-01-30T05:38:11;14.9;;;23.2;;
69636;SDS011;56860;51.144;16.954;2024-01-30T05:39:11;15.5;;;26.4;;
69636;SDS011;56860;51.144;16.954;2024-01-30T05:40:11;15.5;;;26.4;;
69636;SDS011;56860;51.144;16.954;2024-01-30T05:41:11;15.5;;;26.4;;
69636;SDS011;56860;51.144;16.954;2024-01-30T05:42:11;15.6;;;26.6;;
69636;SDS011;56860;51.144;16.954;2024-01-30T05:43:11;15.6;;;26.6;;
69636;SDS011;56860;51.144;16.954;2024-01-30T05:44:11;15.6;;;26.6;;
69636;SDS011;56860;51.144;16.954;2024-01-30T05:45:11;15.4;;;24.1;;
69636;SDS011;56860;51.144;16.954;2024-01-30T05:46:11;15.4;;;24.1;;
69636;SDS011;56860;51.144;16.954;2024-01-30T05:47:11;15.4;;;24.1;;
69636;SDS011;56860;51.144;16.954;2024-01-30T05:48:11;16.3;;;29.9;;
69636;SDS011;56860;51.144;16.954;2024-01-30T05:49:11;15.8;;;28.5;;
69636;SDS011;56860;51.144;16.954;2024-01-30T05:50:11;15.8;;;28.5;;
69636;SDS011;56860;51.144;16.954;2024-01-30T05:51:11;21.4;;;37.9;;
69636;SDS011;56860;51.144;16.954;2024-01-30T05:52:11;25.3;;;46.0;;
69636;SDS011;56860;51.144;16.954;2024-01-30T05:53:11;25.3;;;46.0;;
69636;SDS011;56860;51.144;16.954;2024-01-30T05:54:11;25.3;;;46.0;;
69636;SDS011;56860;51.144;16.954;2024-01-30T05:55:11;15.5;;;25.4;;
69636;SDS011;56860;51.144;16.954;2024-01-30T05:56:11;15.5;;;25.4;;
69636;SDS011;56860;51.144;16.954;2024-01-30T05:57:11;15.5;;;25.4;;